Observation data for Northfield on 01/18/2019      Previous  Date  Next       Current Mesonet Observations  Soil Data  Daily Summary Page  Observations in Plain Language
KNOR 180600Z 18011KT 07/04 A2999 RMK A01 T00730036  RH  079%=      5-min Rain = 0
KNOR 180605Z 18011KT 07/04 A2999 RMK A01 T00720035  RH  079%=      5-min Rain = 0
KNOR 180610Z 17009KT 07/04 A2998 RMK A01 T00710035  RH  079%=      5-min Rain = 0
KNOR 180615Z 17010KT 07/04 A2998 RMK A01 T00700035  RH  080%=      5-min Rain = 0
KNOR 180620Z 17010KT 07/03 A2998 RMK A01 T00680034  RH  080%=      5-min Rain = 0
KNOR 180625Z 17011KT 07/03 A2998 RMK A01 T00680034  RH  080%=      5-min Rain = 0
KNOR 180630Z 17010KT 07/03 A2998 RMK A01 T00680034  RH  080%=      5-min Rain = 0
KNOR 180635Z 17010KT 07/03 A2997 RMK A01 T00690034  RH  080%=      5-min Rain = 0
KNOR 180640Z 17010KT 07/04 A2997 RMK A01 T00690035  RH  080%=      5-min Rain = 0
KNOR 180645Z 17010KT 07/04 A2997 RMK A01 T00700035  RH  080%=      5-min Rain = 0
KNOR 180650Z 18009KT 07/04 A2997 RMK A01 T00710035  RH  079%=      5-min Rain = 0
KNOR 180655Z 17009KT 07/04 A2997 RMK A01 T00700035  RH  080%=      5-min Rain = 0
KNOR 180700Z 17008KT 07/03 A2997 RMK A01 T00690034  RH  080%=      5-min Rain = 0
KNOR 180705Z 17008KT 07/03 A2997 RMK A01 T00670034  RH  081%=      5-min Rain = 0
KNOR 180710Z 17008KT 07/03 A2997 RMK A01 T00680034  RH  081%=      5-min Rain = 0
KNOR 180715Z 17007G12KT 07/03 A2996 RMK A01 T00660033  RH  081%=      5-min Rain = 0
KNOR 180720Z 17007KT 06/03 A2996 RMK A01 T00640032  RH  082%=      5-min Rain = 0
KNOR 180725Z 17006KT 06/03 A2996 RMK A01 T00630032  RH  082%=      5-min Rain = 0
KNOR 180730Z 17006KT 06/03 A2996 RMK A01 T00620031  RH  082%=      5-min Rain = 0
KNOR 180735Z 17007KT 06/03 A2995 RMK A01 T00600030  RH  083%=      5-min Rain = 0
KNOR 180740Z 17007KT 06/03 A2995 RMK A01 T00590030  RH  083%=      5-min Rain = 0
KNOR 180745Z 17007KT 06/03 A2994 RMK A01 T00580030  RH  083%=      5-min Rain = 0
KNOR 180750Z 17006KT 06/03 A2994 RMK A01 T00580030  RH  084%=      5-min Rain = 0
KNOR 180755Z 17006KT 06/03 A2994 RMK A01 T00580030  RH  084%=      5-min Rain = 0
KNOR 180800Z 16007KT 06/03 A2994 RMK A01 T00570029  RH  084%=      5-min Rain = 0
KNOR 180805Z 15007KT 06/03 A2994 RMK A01 T00560029  RH  084%=      5-min Rain = 0
KNOR 180810Z 15007KT 06/03 A2993 RMK A01 T00550028  RH  084%=      5-min Rain = 0
KNOR 180815Z 15007KT 05/03 A2993 RMK A01 T00530028  RH  085%=      5-min Rain = 0
KNOR 180820Z 15007KT 05/03 A2993 RMK A01 T00520027  RH  085%=      5-min Rain = 0
KNOR 180825Z 15006KT 05/03 A2993 RMK A01 T00500026  RH  086%=      5-min Rain = 0
KNOR 180830Z 14005KT 05/03 A2993 RMK A01 T00480025  RH  087%=      5-min Rain = 0
KNOR 180835Z 13005KT 05/03 A2993 RMK A01 T00480025  RH  087%=      5-min Rain = 0
KNOR 180840Z 13006KT 05/02 A2993 RMK A01 T00460024  RH  087%=      5-min Rain = 0
KNOR 180845Z 13007KT 05/02 A2992 RMK A01 T00450023  RH  087%=      5-min Rain = 0
KNOR 180850Z 14008KT 04/02 A2991 RMK A01 T00420022  RH  088%=      5-min Rain = 0
KNOR 180855Z 14009KT 04/02 A2991 RMK A01 T00400021  RH  089%=      5-min Rain = 0
KNOR 180900Z 15010KT 04/02 A2991 RMK A01 T00410023  RH  090%=      5-min Rain = 0
KNOR 180905Z 15010KT 04/02 A299 RMK A01 T00410023  RH  089%=      5-min Rain = 0
KNOR 180910Z 15009KT 04/02 A299 RMK A01 T00410023  RH  089%=      5-min Rain = 0
KNOR 180915Z 15008KT 04/02 A299 RMK A01 T00400021  RH  089%=      5-min Rain = 0
KNOR 180920Z 16008KT 04/02 A2989 RMK A01 T00400022  RH  090%=      5-min Rain = 0
KNOR 180925Z 17010KT 05/03 A2989 RMK A01 T00490027  RH  087%=      5-min Rain = 0
KNOR 180930Z 18008KT 05/03 A2989 RMK A01 T00540025  RH  083%=      5-min Rain = 0
KNOR 180935Z 19006KT 06/02 A2989 RMK A01 T00550023  RH  081%=      5-min Rain = 0
KNOR 180940Z 20007KT 06/02 A2989 RMK A01 T00600024  RH  079%=      5-min Rain = 0
KNOR 180945Z 21006KT 06/02 A2988 RMK A01 T00620022  RH  077%=      5-min Rain = 0
KNOR 180950Z 28003KT 05/02 A2988 RMK A01 T00520017  RH  079%=      5-min Rain = 0
KNOR 180955Z 24003KT 05/02 A2988 RMK A01 T00480017  RH  082%=      5-min Rain = 0
KNOR 181000Z 23006KT 05/01 A2988 RMK A01 T00450014  RH  082%=      5-min Rain = 0
KNOR 181005Z 22006KT 05/02 A2988 RMK A01 T00490017  RH  081%=      5-min Rain = 0
KNOR 181010Z 21005KT 05/01 A2987 RMK A01 T00460014  RH  081%=      5-min Rain = 0
KNOR 181015Z 20006KT 04/01 A2987 RMK A01 T00440013  RH  081%=      5-min Rain = 0
KNOR 181020Z 20007KT 04/01 A2986 RMK A01 T00420014  RH  083%=      5-min Rain = 0
KNOR 181025Z 20007KT 04/02 A2986 RMK A01 T00430015  RH  083%=      5-min Rain = 0
KNOR 181030Z 21006KT 04/01 A2986 RMK A01 T00440014  RH  082%=      5-min Rain = 0
KNOR 181035Z 22006KT 04/01 A2986 RMK A01 T00420012  RH  082%=      5-min Rain = 0
KNOR 181040Z 22007KT 04/01 A2986 RMK A01 T00440013  RH  081%=      5-min Rain = 0
KNOR 181045Z 21008KT 04/01 A2985 RMK A01 T00430012  RH  081%=      5-min Rain = 0
KNOR 181050Z 21008KT 04/01 A2985 RMK A01 T00430012  RH  081%=      5-min Rain = 0
KNOR 181055Z 22007KT 05/01 A2985 RMK A01 T00450012  RH  080%=      5-min Rain = 0
KNOR 181100Z 22007KT 05/01 A2985 RMK A01 T00480012  RH  079%=      5-min Rain = 0
KNOR 181105Z 21008KT 05/01 A2984 RMK A01 T00500013  RH  078%=      5-min Rain = 0
KNOR 181110Z 21008KT 05/01 A2984 RMK A01 T00520013  RH  077%=      5-min Rain = 0
KNOR 181115Z 22008KT 05/01 A2984 RMK A01 T00540014  RH  076%=      5-min Rain = 0
KNOR 181120Z 20008KT 06/01 A2984 RMK A01 T00550014  RH  076%=      5-min Rain = 0
KNOR 181125Z 21007KT 06/01 A2983 RMK A01 T00550013  RH  076%=      5-min Rain = 0
KNOR 181130Z 21008KT 06/01 A2983 RMK A01 T00550014  RH  076%=      5-min Rain = 0
KNOR 181135Z 21008KT 06/01 A2982 RMK A01 T00560014  RH  075%=      5-min Rain = 0
KNOR 181140Z 20009KT 05/01 A2982 RMK A01 T00540014  RH  076%=      5-min Rain = 0
KNOR 181145Z 20009KT 05/01 A2982 RMK A01 T00530014  RH  077%=      5-min Rain = 0
KNOR 181150Z 20009KT 05/02 A2981 RMK A01 T00540015  RH  077%=      5-min Rain = 0
KNOR 181155Z 19010KT 06/02 A298 RMK A01 T00580016  RH  076%=      5-min Rain = 0
KNOR 181200Z 20009KT 06/02 A298 RMK A01 T00590017  RH  076%=      5-min Rain = 0
KNOR 181205Z 20008KT 06/02 A298 RMK A01 T00600018  RH  075%=      5-min Rain = 0
KNOR 181210Z 21009KT 06/02 A298 RMK A01 T00600018  RH  075%=      5-min Rain = 0
KNOR 181215Z 21008KT 06/02 A298 RMK A01 T00590018  RH  076%=      5-min Rain = 0
KNOR 181220Z 21009KT 06/02 A298 RMK A01 T00590019  RH  077%=      5-min Rain = 0
KNOR 181225Z 20009KT 06/02 A2979 RMK A01 T00620020  RH  075%=      5-min Rain = 0
KNOR 181230Z 20010KT 06/02 A2979 RMK A01 T00620021  RH  076%=      5-min Rain = 0
KNOR 181235Z 20010KT 06/02 A2979 RMK A01 T00640021  RH  075%=      5-min Rain = 0
KNOR 181240Z 21010KT 07/02 A2979 RMK A01 T00650021  RH  075%=      5-min Rain = 0
KNOR 181245Z 21010KT 07/02 A2978 RMK A01 T00660021  RH  074%=      5-min Rain = 0
KNOR 181250Z 21009KT 07/02 A2978 RMK A01 T00660020  RH  074%=      5-min Rain = 0
KNOR 181255Z 20009KT 07/02 A2978 RMK A01 T00660019  RH  073%=      5-min Rain = 0
KNOR 181300Z 20009KT 07/02 A2978 RMK A01 T00650018  RH  073%=      5-min Rain = 0
KNOR 181305Z 21010KT 07/02 A2978 RMK A01 T00660018  RH  072%=      5-min Rain = 0
KNOR 181310Z 21009KT 07/02 A2977 RMK A01 T00670018  RH  072%=      5-min Rain = 0
KNOR 181315Z 21008KT 07/02 A2977 RMK A01 T00670017  RH  072%=      5-min Rain = 0
KNOR 181320Z 22008KT 07/02 A2978 RMK A01 T00650017  RH  072%=      5-min Rain = 0
KNOR 181325Z 22008KT 06/02 A2979 RMK A01 T00640016  RH  073%=      5-min Rain = 0
KNOR 181330Z 22008KT 06/02 A2979 RMK A01 T00620016  RH  073%=      5-min Rain = 0
KNOR 181335Z 23010KT 06/02 A2979 RMK A01 T00620015  RH  073%=      5-min Rain = 0
KNOR 181340Z 23009KT 07/01 A2979 RMK A01 T00650014  RH  071%=      5-min Rain = 0
KNOR 181345Z 24010KT 07/01 A2979 RMK A01 T00700013  RH  068%=      5-min Rain = 0
KNOR 181350Z 23009KT 07/01 A2979 RMK A01 T00700012  RH  068%=      5-min Rain = 0
KNOR 181355Z 22009KT 07/01 A2978 RMK A01 T00700012  RH  068%=      5-min Rain = 0
KNOR 181400Z 22009KT 07/01 A2978 RMK A01 T00690012  RH  068%=      5-min Rain = 0
KNOR 181405Z 23008KT 07/01 A2978 RMK A01 T00710012  RH  067%=      5-min Rain = 0
KNOR 181410Z 22007KT 07/01 A2978 RMK A01 T00710012  RH  067%=      5-min Rain = 0
KNOR 181415Z 22008KT 07/01 A2978 RMK A01 T00690011  RH  067%=      5-min Rain = 0
KNOR 181420Z 21007KT 07/01 A2977 RMK A01 T00690011  RH  067%=      5-min Rain = 0
KNOR 181425Z 22007KT 07/01 A2977 RMK A01 T00700011  RH  067%=      5-min Rain = 0
KNOR 181430Z 23008KT 07/01 A2978 RMK A01 T00720012  RH  066%=      5-min Rain = 0
KNOR 181435Z 22009KT 08/01 A2978 RMK A01 T00770014  RH  065%=      5-min Rain = 0
KNOR 181440Z 21008KT 08/02 A2977 RMK A01 T00820016  RH  064%=      5-min Rain = 0
KNOR 181445Z 22010KT 09/02 A2977 RMK A01 T00880016  RH  061%=      5-min Rain = 0
KNOR 181450Z 23011G16KT 09/02 A2977 RMK A01 T00920015  RH  059%=      5-min Rain = 0
KNOR 181455Z 23012G17KT 10/01 A2976 RMK A01 T00960014  RH  057%=      5-min Rain = 0
KNOR 181500Z 23013KT 10/01 A2976 RMK A01 T01020013  RH  055%=      5-min Rain = 0
KNOR 181505Z 23011KT 10/01 A2976 RMK A01 T01020013  RH  055%=      5-min Rain = 0
KNOR 181510Z 23010KT 10/01 A2976 RMK A01 T01020014  RH  055%=      5-min Rain = 0
KNOR 181515Z 23008KT 10/01 A2976 RMK A01 T01030014  RH  055%=      5-min Rain = 0
KNOR 181520Z 23007KT 11/01 A2976 RMK A01 T01060014  RH  054%=      5-min Rain = 0
KNOR 181525Z 23007KT 11/01 A2976 RMK A01 T01130014  RH  051%=      5-min Rain = 0
KNOR 181530Z 23009KT 12/01 A2975 RMK A01 T01190014  RH  049%=      5-min Rain = 0
KNOR 181535Z 23010KT 12/01 A2976 RMK A01 T01200013  RH  049%=      5-min Rain = 0
KNOR 181540Z 23010KT 12/01 A2975 RMK A01 T01210014  RH  048%=      5-min Rain = 0
KNOR 181545Z 25010KT 12/01 A2975 RMK A01 T01240013  RH  048%=      5-min Rain = 0
KNOR 181550Z 23010KT 13/01 A2975 RMK A01 T01250013  RH  047%=      5-min Rain = 0
KNOR 181555Z 24009KT 13/01 A2975 RMK A01 T01250013  RH  047%=      5-min Rain = 0
KNOR 181600Z 25007KT 13/01 A2975 RMK A01 T01250014  RH  047%=      5-min Rain = 0
KNOR 181605Z 25007KT 13/02 A2975 RMK A01 T01250015  RH  047%=      5-min Rain = 0
KNOR 181610Z 24007KT 13/02 A2975 RMK A01 T01260015  RH  047%=      5-min Rain = 0
KNOR 181615Z 24007KT 13/01 A2975 RMK A01 T01290014  RH  046%=      5-min Rain = 0
KNOR 181620Z 23007KT 13/01 A2974 RMK A01 T01310013  RH  045%=      5-min Rain = 0
KNOR 181625Z 22007KT 13/01 A2974 RMK A01 T01330012  RH  044%=      5-min Rain = 0
KNOR 181630Z 21007KT 14/01 A2974 RMK A01 T01350013  RH  044%=      5-min Rain = 0
KNOR 181635Z 21008KT 14/01 A2974 RMK A01 T01380013  RH  043%=      5-min Rain = 0
KNOR 181640Z 21008KT 14/01 A2974 RMK A01 T01410014  RH  042%=      5-min Rain = 0
KNOR 181645Z 21009KT 15/01 A2974 RMK A01 T01460013  RH  041%=      5-min Rain = 0
KNOR 181650Z 21010KT 15/01 A2973 RMK A01 T01540010  RH  038%=      5-min Rain = 0
KNOR 181655Z 21008KT 16/01 A2973 RMK A01 T01590009  RH  037%=      5-min Rain = 0
KNOR 181700Z 22009G15KT 16/01 A2973 RMK A01 T01620009  RH  036%=      5-min Rain = 0
KNOR 181705Z 22011KT 17/01 A2973 RMK A01 T01730010  RH  034%=      5-min Rain = 0
KNOR 181710Z 22010KT 18/01 A2972 RMK A01 T01810010  RH  032%=      5-min Rain = 0
KNOR 181715Z 22011KT 18/01 A2972 RMK A01 T01840008  RH  031%=      5-min Rain = 0
KNOR 181720Z 23011KT 19/01 A2971 RMK A01 T01850009  RH  031%=      5-min Rain = 0
KNOR 181725Z 23009KT 19/01 A2971 RMK A01 T01900009  RH  030%=      5-min Rain = 0
KNOR 181730Z 23010KT 19/01 A2971 RMK A01 T01940008  RH  029%=      5-min Rain = 0
KNOR 181735Z 24009KT 20/01 A297 RMK A01 T01970005  RH  028%=      5-min Rain = 0
KNOR 181740Z 24008KT 20/01 A2969 RMK A01 T02040008  RH  028%=      5-min Rain = 0
KNOR 181745Z 26013G18KT 21/00 A2969 RMK A01 T02130002  RH  025%=      5-min Rain = 0
KNOR 181750Z 25013G19KT 22/00 A2968 RMK A01 T021700-0  RH  024%=      5-min Rain = 0
KNOR 181755Z 26017G29KT 22/00 A2968 RMK A01 T02240000  RH  023%=      5-min Rain = 0
KNOR 181800Z 27021G27KT 22/M01 A2967 RMK A01 T02201006  RH  022%=      5-min Rain = 0
KNOR 181805Z 26017G22KT 23/M00 A2967 RMK A01 T02261003  RH  022%=      5-min Rain = 0
KNOR 181810Z 26018G26KT 23/M00 A2967 RMK A01 T02291004  RH  022%=      5-min Rain = 0
KNOR 181815Z 25020G29KT 23/M01 A2966 RMK A01 T02301005  RH  021%=      5-min Rain = 0
KNOR 181820Z 26019G25KT 23/M01 A2965 RMK A01 T02321006  RH  021%=      5-min Rain = 0
KNOR 181825Z 26023G29KT 23/M01 A2964 RMK A01 T02301007  RH  021%=      5-min Rain = 0
KNOR 181830Z 26024G33KT 23/M01 A2964 RMK A01 T02321007  RH  021%=      5-min Rain = 0
KNOR 181835Z 25025G36KT 23/M01 A2963 RMK A01 T02321009  RH  020%=      5-min Rain = 0
KNOR 181840Z 25024G32KT 23/M01 A2962 RMK A01 T02331008  RH  020%=      5-min Rain = 0
KNOR 181845Z 25022G32KT 24/M01 A2962 RMK A01 T02361008  RH  020%=      5-min Rain = 0
KNOR 181850Z 25026G33KT 23/M01 A2961 RMK A01 T02341009  RH  020%=      5-min Rain = 0
KNOR 181855Z 24026G34KT 23/M01 A296 RMK A01 T02331009  RH  020%=      5-min Rain = 0
KNOR 181900Z 25025G33KT 23/M01 A296 RMK A01 T02321008  RH  020%=      5-min Rain = 0
KNOR 181905Z 25026G34KT 23/M01 A296 RMK A01 T02321008  RH  020%=      5-min Rain = 0
KNOR 181910Z 25023G31KT 23/M01 A296 RMK A01 T02321007  RH  021%=      5-min Rain = 0
KNOR 181915Z 24024G32KT 24/M01 A2959 RMK A01 T02351007  RH  020%=      5-min Rain = 0
KNOR 181920Z 25023G31KT 23/M01 A2959 RMK A01 T02331009  RH  020%=      5-min Rain = 0
KNOR 181925Z 26025G31KT 23/M01 A2959 RMK A01 T02321009  RH  020%=      5-min Rain = 0
KNOR 181930Z 25021G30KT 24/M01 A2959 RMK A01 T02381006  RH  020%=      5-min Rain = 0
KNOR 181935Z 26025G34KT 23/M01 A2958 RMK A01 T02331007  RH  021%=      5-min Rain = 0
KNOR 181940Z 25021G31KT 24/M01 A2958 RMK A01 T02361005  RH  021%=      5-min Rain = 0
KNOR 181945Z 25026G35KT 23/M01 A2957 RMK A01 T02331009  RH  020%=      5-min Rain = 0
KNOR 181950Z 25023G32KT 24/M01 A2957 RMK A01 T02351011  RH  020%=      5-min Rain = 0
KNOR 181955Z 25025G34KT 23/M01 A2957 RMK A01 T02341013  RH  020%=      5-min Rain = 0
KNOR 182000Z 25023G32KT 23/M01 A2956 RMK A01 T02331014  RH  019%=      5-min Rain = 0
KNOR 182005Z 26023G33KT 24/M02 A2956 RMK A01 T02361016  RH  019%=      5-min Rain = 0
KNOR 182010Z 26025G33KT 24/M02 A2956 RMK A01 T02351021  RH  018%=      5-min Rain = 0
KNOR 182015Z 27023G29KT 23/M02 A2956 RMK A01 T02341020  RH  019%=      5-min Rain = 0
KNOR 182020Z 26024G30KT 24/M02 A2956 RMK A01 T02361015  RH  019%=      5-min Rain = 0
KNOR 182025Z 27023G29KT 23/M01 A2956 RMK A01 T02341014  RH  019%=      5-min Rain = 0
KNOR 182030Z 25024G39KT 24/M01 A2955 RMK A01 T02361008  RH  020%=      5-min Rain = 0
KNOR 182035Z 26028G37KT 23/M01 A2955 RMK A01 T02301006  RH  021%=      5-min Rain = 0
KNOR 182040Z 26028G34KT 23/M01 A2955 RMK A01 T02281009  RH  021%=      5-min Rain = 0
KNOR 182045Z 25027G38KT 23/M01 A2955 RMK A01 T02281009  RH  021%=      5-min Rain = 0
KNOR 182050Z 25027G37KT 23/M01 A2955 RMK A01 T02311013  RH  020%=      5-min Rain = 0
KNOR 182055Z 26024G37KT 23/M02 A2955 RMK A01 T02311016  RH  019%=      5-min Rain = 0
KNOR 182100Z 26022G34KT 23/M01 A2956 RMK A01 T02331014  RH  020%=      5-min Rain = 0
KNOR 182105Z 26024G35KT 22/M02 A2956 RMK A01 T02201017  RH  021%=      5-min Rain = 0
KNOR 182110Z 26021G29KT 22/M01 A2956 RMK A01 T02181013  RH  022%=      5-min Rain = 0
KNOR 182115Z 26022G31KT 23/M01 A2956 RMK A01 T02281009  RH  021%=      5-min Rain = 0
KNOR 182120Z 26024G35KT 23/M01 A2956 RMK A01 T02291011  RH  020%=      5-min Rain = 0
KNOR 182125Z 26027G35KT 22/M02 A2955 RMK A01 T02241015  RH  020%=      5-min Rain = 0
KNOR 182130Z 26025G31KT 23/M01 A2956 RMK A01 T02261014  RH  020%=      5-min Rain = 0
KNOR 182135Z 26025G34KT 23/M02 A2956 RMK A01 T02271016  RH  020%=      5-min Rain = 0
KNOR 182140Z 27023G31KT 23/M01 A2956 RMK A01 T02281014  RH  020%=      5-min Rain = 0
KNOR 182145Z 26024G33KT 23/M01 A2956 RMK A01 T02271013  RH  020%=      5-min Rain = 0
KNOR 182150Z 26024G31KT 22/M01 A2956 RMK A01 T02211011  RH  021%=      5-min Rain = 0
KNOR 182155Z 26024G31KT 22/M01 A2956 RMK A01 T02151012  RH  022%=      5-min Rain = 0
KNOR 182200Z 27018G26KT 21/M01 A2956 RMK A01 T02141012  RH  022%=      5-min Rain = 0
KNOR 182205Z 27021G29KT 21/M01 A2957 RMK A01 T02121014  RH  022%=      5-min Rain = 0
KNOR 182210Z 27022G28KT 21/M01 A2957 RMK A01 T02101012  RH  023%=      5-min Rain = 0
KNOR 182215Z 28024G31KT 21/M01 A2957 RMK A01 T02081011  RH  023%=      5-min Rain = 0
KNOR 182220Z 28022G30KT 21/M01 A2958 RMK A01 T02061013  RH  023%=      5-min Rain = 0
KNOR 182225Z 27020G27KT 21/M01 A2958 RMK A01 T02051014  RH  023%=      5-min Rain = 0
KNOR 182230Z 26019G26KT 21/M02 A2958 RMK A01 T02081015  RH  023%=      5-min Rain = 0
KNOR 182235Z 26019G26KT 21/M02 A2958 RMK A01 T02121016  RH  022%=      5-min Rain = 0
KNOR 182240Z 26018G24KT 21/M02 A2958 RMK A01 T02081015  RH  022%=      5-min Rain = 0
KNOR 182245Z 25018G24KT 21/M01 A2957 RMK A01 T02061010  RH  024%=      5-min Rain = 0
KNOR 182250Z 26018G25KT 20/M01 A2957 RMK A01 T02041006  RH  025%=      5-min Rain = 0
KNOR 182255Z 26018G27KT 20/M01 A2957 RMK A01 T02031006  RH  025%=      5-min Rain = 0
KNOR 182300Z 25015G21KT 20/M01 A2957 RMK A01 T02011007  RH  025%=      5-min Rain = 0
KNOR 182305Z 25017G24KT 20/M01 A2957 RMK A01 T02001006  RH  025%=      5-min Rain = 0
KNOR 182310Z 26016G23KT 20/M01 A2957 RMK A01 T01981005  RH  026%=      5-min Rain = 0
KNOR 182315Z 26016G22KT 20/M00 A2957 RMK A01 T01971003  RH  026%=      5-min Rain = 0
KNOR 182320Z 26019G27KT 20/M01 A2957 RMK A01 T01971006  RH  026%=      5-min Rain = 0
KNOR 182325Z 26017G24KT 19/M01 A2957 RMK A01 T01941009  RH  026%=      5-min Rain = 0
KNOR 182330Z 26017G22KT 19/M01 A2957 RMK A01 T01931010  RH  026%=      5-min Rain = 0
KNOR 182335Z 26016G24KT 19/M01 A2957 RMK A01 T01911009  RH  026%=      5-min Rain = 0
KNOR 182340Z 26017G26KT 19/M01 A2957 RMK A01 T01891007  RH  027%=      5-min Rain = 0
KNOR 182345Z 26019G27KT 19/M01 A2957 RMK A01 T01881007  RH  027%=      5-min Rain = 0
KNOR 182350Z 27018G25KT 19/M01 A2958 RMK A01 T01871008  RH  027%=      5-min Rain = 0
KNOR 182355Z 26018G25KT 19/M01 A2958 RMK A01 T01861009  RH  027%=      5-min Rain = 0
KNOR 190000Z 26017G23KT 19/M01 A2958 RMK A01 T01851009  RH  027%=      5-min Rain = 0
KNOR 190005Z 26019G26KT 18/M01 A2958 RMK A01 T01841010  RH  027%=      5-min Rain = 0
KNOR 190010Z 26018G25KT 18/M01 A2959 RMK A01 T01841014  RH  026%=      5-min Rain = 0
KNOR 190015Z 27016G22KT 18/M02 A2959 RMK A01 T01831017  RH  026%=      5-min Rain = 0
KNOR 190020Z 27016G22KT 18/M02 A2959 RMK A01 T01831023  RH  025%=      5-min Rain = 0
KNOR 190025Z 31019G31KT 18/M02 A2961 RMK A01 T01761024  RH  026%=      5-min Rain = 0
KNOR 190030Z 36022G28KT 13/M00 A2963 RMK A01 T01271001  RH  042%=      5-min Rain = 0
KNOR 190035Z 00020G27KT 11/00 A2964 RMK A01 T01140001  RH  046%=      5-min Rain = 0
KNOR 190040Z 35019G25KT 11/00 A2965 RMK A01 T01060000  RH  049%=      5-min Rain = 0
KNOR 190045Z 35019G25KT 10/00 A2967 RMK A01 T00990000  RH  051%=      5-min Rain = 0
KNOR 190050Z 34017G22KT 09/M00 A2968 RMK A01 T00921001  RH  053%=      5-min Rain = 0
KNOR 190055Z 34020G27KT 09/M00 A297 RMK A01 T00861002  RH  054%=      5-min Rain = 0
KNOR 190100Z 34025G34KT 08/M00 A2971 RMK A01 T00801002  RH  057%=      5-min Rain = 0
KNOR 190105Z 35019G28KT 08/M00 A2972 RMK A01 T00761001  RH  059%=      5-min Rain = 0
KNOR 190110Z 35021G30KT 07/M00 A2972 RMK A01 T00721001  RH  060%=      5-min Rain = 0
KNOR 190115Z 34021G28KT 07/M00 A2973 RMK A01 T00681001  RH  062%=      5-min Rain = 0
KNOR 190120Z 35020G27KT 07/M00 A2974 RMK A01 T00661002  RH  063%=      5-min Rain = 0
KNOR 190125Z 34019G29KT 06/M00 A2974 RMK A01 T00631002  RH  064%=      5-min Rain = 0
KNOR 190130Z 34019G29KT 06/M00 A2975 RMK A01 T00611002  RH  065%=      5-min Rain = 0
KNOR 190135Z 34020G27KT 06/M00 A2975 RMK A01 T00601002  RH  065%=      5-min Rain = 0
KNOR 190140Z 34021G30KT 06/M00 A2975 RMK A01 T00581003  RH  066%=      5-min Rain = 0
KNOR 190145Z 35021G31KT 06/M00 A2976 RMK A01 T00581002  RH  066%=      5-min Rain = 0
KNOR 190150Z 34019G26KT 06/M00 A2977 RMK A01 T00581001  RH  067%=      5-min Rain = 0
KNOR 190155Z 34021G27KT 06/00 A2978 RMK A01 T00590000  RH  067%=      5-min Rain = 0
KNOR 190200Z 34019G25KT 06/00 A2979 RMK A01 T00590001  RH  067%=      5-min Rain = 0
KNOR 190205Z 34021G30KT 06/00 A2979 RMK A01 T00590001  RH  067%=      5-min Rain = 0
KNOR 190210Z 34020G28KT 06/00 A2979 RMK A01 T00590001  RH  067%=      5-min Rain = 0
KNOR 190215Z 34019G25KT 06/00 A298 RMK A01 T00590001  RH  067%=      5-min Rain = 0
KNOR 190220Z 35022G31KT 06/00 A298 RMK A01 T00580001  RH  068%=      5-min Rain = 0
KNOR 190225Z 35022G32KT 06/00 A2981 RMK A01 T00570002  RH  068%=      5-min Rain = 0
KNOR 190230Z 34022G30KT 06/00 A2981 RMK A01 T00560001  RH  069%=      5-min Rain = 0
KNOR 190235Z 34027G37KT 06/00 A2981 RMK A01 T00550001  RH  069%=      5-min Rain = 0
KNOR 190240Z 34023G30KT 05/00 A2982 RMK A01 T00540001  RH  069%=      5-min Rain = 0
KNOR 190245Z 34022G33KT 05/00 A2983 RMK A01 T00530001  RH  070%=      5-min Rain = 0
KNOR 190250Z 34021G30KT 05/00 A2983 RMK A01 T00520001  RH  070%=      5-min Rain = 0
KNOR 190255Z 34023G30KT 05/00 A2984 RMK A01 T00520000  RH  070%=      5-min Rain = 0
KNOR 190300Z 35022G31KT 05/00 A2984 RMK A01 T005200-0  RH  070%=      5-min Rain = 0
KNOR 190305Z 34025G33KT 05/M00 A2984 RMK A01 T00511001  RH  070%=      5-min Rain = 0
KNOR 190310Z 33024G32KT 05/M00 A2985 RMK A01 T00501003  RH  070%=      5-min Rain = 0
KNOR 190315Z 34023G32KT 05/M00 A2985 RMK A01 T00491004  RH  070%=      5-min Rain = 0
KNOR 190320Z 34020G28KT 05/M00 A2985 RMK A01 T00491004  RH  069%=      5-min Rain = 0
KNOR 190325Z 34021G28KT 05/M01 A2986 RMK A01 T00481006  RH  069%=      5-min Rain = 0
KNOR 190330Z 34019G27KT 05/M01 A2986 RMK A01 T00481007  RH  068%=      5-min Rain = 0
KNOR 190335Z 34020G28KT 05/M01 A2987 RMK A01 T00481008  RH  067%=      5-min Rain = 0
KNOR 190340Z 34021G32KT 05/M01 A2987 RMK A01 T00481009  RH  067%=      5-min Rain = 0
KNOR 190345Z 34024G31KT 05/M01 A2988 RMK A01 T00471010  RH  067%=      5-min Rain = 0
KNOR 190350Z 34021G29KT 05/M01 A2988 RMK A01 T00461012  RH  067%=      5-min Rain = 0
KNOR 190355Z 34024G35KT 05/M01 A2989 RMK A01 T00451013  RH  066%=      5-min Rain = 0
KNOR 190400Z 34021G32KT 04/M02 A2989 RMK A01 T00431015  RH  066%=      5-min Rain = 0
KNOR 190405Z 35018G24KT 04/M02 A299 RMK A01 T00431016  RH  066%=      5-min Rain = 0
KNOR 190410Z 34019G30KT 04/M02 A2991 RMK A01 T00431016  RH  066%=      5-min Rain = 0
KNOR 190415Z 34024G32KT 04/M02 A2991 RMK A01 T00421020  RH  065%=      5-min Rain = 0
KNOR 190420Z 34023G37KT 04/M02 A2992 RMK A01 T00411022  RH  064%=      5-min Rain = 0
KNOR 190425Z 35026G37KT 04/M03 A2993 RMK A01 T00391026  RH  063%=      5-min Rain = 0
KNOR 190430Z 34020G28KT 04/M03 A2993 RMK A01 T00391025  RH  064%=      5-min Rain = 0
KNOR 190435Z 34023G32KT 04/M03 A2994 RMK A01 T00371025  RH  064%=      5-min Rain = 0
KNOR 190440Z 34023G30KT 04/M03 A2995 RMK A01 T00371025  RH  064%=      5-min Rain = 0
KNOR 190445Z 34022G30KT 04/M03 A2995 RMK A01 T00361027  RH  064%=      5-min Rain = 0
KNOR 190450Z 35022G29KT 04/M03 A2995 RMK A01 T00351028  RH  064%=      5-min Rain = 0
KNOR 190455Z 35020G27KT 04/M03 A2996 RMK A01 T00351028  RH  064%=      5-min Rain = 0
KNOR 190500Z 35020G30KT 04/M03 A2997 RMK A01 T00361027  RH  064%=      5-min Rain = 0
KNOR 190505Z 34018G26KT 04/M03 A2997 RMK A01 T00361026  RH  064%=      5-min Rain = 0
KNOR 190510Z 34021G29KT 04/M03 A2998 RMK A01 T00351025  RH  065%=      5-min Rain = 0
KNOR 190515Z 34017G24KT 03/M02 A2998 RMK A01 T00331023  RH  067%=      5-min Rain = 0
KNOR 190520Z 34021G28KT 03/M02 A2999 RMK A01 T00291023  RH  069%=      5-min Rain = 0
KNOR 190525Z 34021G29KT 02/M02 A2999 RMK A01 T00221018  RH  076%=      5-min Rain = 0
KNOR 190530Z 34021G26KT 02/M01 A30 RMK A01 T00151012  RH  083%=      5-min Rain = 0
KNOR 190535Z 34018G24KT 01/M01 A3001 RMK A01 T00081010  RH  089%=      5-min Rain = 0
KNOR 190540Z 34018G25KT 01/M01 A3001 RMK A01 T00051009  RH  092%=      5-min Rain = 0
KNOR 190545Z 34014G19KT 00/M01 A3001 RMK A01 T00041008  RH  093%=      5-min Rain = 0
KNOR 190550Z 34010KT 00/M01 A3002 RMK A01 T00031007  RH  094%=      5-min Rain = 0
KNOR 190555Z 33009KT 00/M01 A3002 RMK A01 T00021007  RH  095%=      5-min Rain = 0

Page generated in 0.0183 seconds.